Etusivu
METAR-TAF:

METAR-TAF

Lentoasemat :

Lydd, Englanti

Leveyspiiri: 50-57N, Pituuspiiri: 000-56E, korkeus merenpinnasta: 3 m

Tämänhetkinen sää

Tämä raportti tehtiin 32 minuuttia sitten, kello 10.20 UTC
Tuuli 10 kn idästä/kaakosta
Lämpötila 5°C
Kosteus 93%
Ilmanpaine 1005 hPa
Näkyvyys: 8000 m
Pilvistä 500 ft:n korkeudessa

METAR: EGMD 211020Z 11010KT 8000 OVC005 05/04 Q1005

Aika: 10:52 (10:52 UTC)

Sääennuste

Tämä raportti tehtiin 2 tuntia ja 51 minuuttia sitten, kello 08.01 UTC
Ennuste voimassa 21. päivästä klo 09 UTC - 21. päivään klo 18 UTC
Tuuli 10 kn idästä/kaakosta
Näkyvyys 10 km tai enemmän
Hajonneita pilviä 1000 ft:n korkeudessa
Ajoittain
21. päivästä klo 09 UTC - 21. päivään klo 18 UTC
Näkyvyys: 8000 m
Hajonneita pilviä 600 ft:n korkeudessa
Todennäköisyys 30% :
Ajoittain
21. päivästä klo 09 UTC - 21. päivään klo 18 UTC
Näkyvyys: 4500 m
usvaa

TAF: EGMD 210801Z 2109/2118 11010KT 9999 BKN010 TEMPO 2109/2118 8000 BKN006 PROB30 TEMPO 2109/2118 4500 HZ

Säähavainnot ja -ennusteet yli 4000 lentoasemalta (METAR- ja TAF-raportit).

Käytössä olevat sääasemat on merkitty karttaan keltaisilla ja punaisilla pisteillä.

Aseta hiiri pisteen päälle nähdäksesi sääaseman nimen.

Klikkaa sitten nähdäksesi säähavainnot ja -ennusteet.

Kartan vaihtaminen: klikkaa mustalla rastilla varustettuja vihreitä pisteitä, niin voit zoomata sisään; viivalla varustettua vihreää pistettä, niin voit zoomata ulos tai vihreitä nuolia, niin pääset viereisille kartoille.


METAR-TAF: